GVBA

Rabil Airport

Rabil, Cape Verde
METAR GVBA 241300Z 01013KT 9999 SCT014 29/21 Q1014 NOSIG
Observed Flight Rules
Sep-24 @ 13:00 UTC (58 minutes ago) Visual Flight Rules
Wind Visibility Clouds
10° at 13 knots 10,000+ meters
  • Scattered at 1,400' AGL
Temperatures Readings
Current 29°C / 84°F
Dewpoint 21°C / 70°F
Humidity 62%
Altimeter 29.94" Hg
Pressure 1014 hPa
Elevation 22
METAR GVBA 241300Z 01013KT 9999 SCT014 29/21 Q1014 NOSIG
Observed Flight Rules
Sep-24 @ 13:00 UTC
(58 minutes ago)
VFR
Wind Visibility
10° at 13 knots 10,000+ meters
Clouds
  • Scattered at 1,400' AGL
Temperature Dewpoint
29°C / 84°F 21°C / 70°F
Humidity Altimeter Pressure
62% 29.94" Hg 1014 hPa